sensor_id;sensor_type;location;lat;lon;timestamp;P1;durP1;ratioP1;P2;durP2;ratioP2
77111;SDS011;66064;50.226;14.344;2023-02-11T00:00:57;51.05;;;46.33;;
77111;SDS011;66064;50.226;14.344;2023-02-11T00:03:24;50.88;;;42.38;;
77111;SDS011;66064;50.226;14.344;2023-02-11T00:05:57;53.78;;;48.45;;
77111;SDS011;66064;50.226;14.344;2023-02-11T00:08:24;49.72;;;34.63;;
77111;SDS011;66064;50.226;14.344;2023-02-11T00:10:51;51.78;;;43.00;;
77111;SDS011;66064;50.226;14.344;2023-02-11T00:13:18;57.17;;;48.03;;
77111;SDS011;66064;50.226;14.344;2023-02-11T00:15:44;51.00;;;45.17;;
77111;SDS011;66064;50.226;14.344;2023-02-11T00:18:10;52.35;;;45.25;;
77111;SDS011;66064;50.226;14.344;2023-02-11T00:20:37;29.15;;;23.77;;
77111;SDS011;66064;50.226;14.344;2023-02-11T00:23:03;45.30;;;41.17;;
77111;SDS011;66064;50.226;14.344;2023-02-11T00:25:29;42.13;;;38.05;;
77111;SDS011;66064;50.226;14.344;2023-02-11T00:27:55;41.90;;;37.47;;
77111;SDS011;66064;50.226;14.344;2023-02-11T00:30:21;45.13;;;40.88;;
77111;SDS011;66064;50.226;14.344;2023-02-11T00:32:48;45.15;;;41.13;;
77111;SDS011;66064;50.226;14.344;2023-02-11T00:35:13;43.60;;;39.20;;
77111;SDS011;66064;50.226;14.344;2023-02-11T00:37:40;45.13;;;40.78;;
77111;SDS011;66064;50.226;14.344;2023-02-11T00:40:06;48.95;;;43.83;;
77111;SDS011;66064;50.226;14.344;2023-02-11T00:42:32;44.97;;;39.38;;
77111;SDS011;66064;50.226;14.344;2023-02-11T00:45:00;47.13;;;42.00;;
77111;SDS011;66064;50.226;14.344;2023-02-11T00:47:27;44.97;;;39.80;;
77111;SDS011;66064;50.226;14.344;2023-02-11T00:49:52;51.30;;;45.97;;
77111;SDS011;66064;50.226;14.344;2023-02-11T00:52:18;50.38;;;45.50;;
77111;SDS011;66064;50.226;14.344;2023-02-11T00:54:44;49.88;;;45.00;;
77111;SDS011;66064;50.226;14.344;2023-02-11T00:57:09;53.38;;;47.83;;
77111;SDS011;66064;50.226;14.344;2023-02-11T00:59:36;50.25;;;44.35;;
77111;SDS011;66064;50.226;14.344;2023-02-11T01:02:02;49.60;;;42.30;;
77111;SDS011;66064;50.226;14.344;2023-02-11T01:04:28;53.60;;;47.33;;
77111;SDS011;66064;50.226;14.344;2023-02-11T01:06:54;53.78;;;48.45;;
77111;SDS011;66064;50.226;14.344;2023-02-11T01:09:20;51.28;;;45.97;;
77111;SDS011;66064;50.226;14.344;2023-02-11T01:11:46;53.00;;;45.55;;
77111;SDS011;66064;50.226;14.344;2023-02-11T01:14:12;59.15;;;53.22;;
77111;SDS011;66064;50.226;14.344;2023-02-11T01:16:38;49.92;;;44.80;;
77111;SDS011;66064;50.226;14.344;2023-02-11T01:19:05;52.00;;;44.65;;
77111;SDS011;66064;50.226;14.344;2023-02-11T01:21:30;49.03;;;44.22;;
77111;SDS011;66064;50.226;14.344;2023-02-11T01:23:56;47.83;;;43.28;;
77111;SDS011;66064;50.226;14.344;2023-02-11T01:26:22;48.72;;;43.63;;
77111;SDS011;66064;50.226;14.344;2023-02-11T01:28:48;50.42;;;45.33;;
77111;SDS011;66064;50.226;14.344;2023-02-11T01:31:14;50.63;;;44.13;;
77111;SDS011;66064;50.226;14.344;2023-02-11T01:33:40;55.20;;;43.53;;
77111;SDS011;66064;50.226;14.344;2023-02-11T01:36:06;54.00;;;48.22;;
77111;SDS011;66064;50.226;14.344;2023-02-11T01:38:33;48.47;;;43.65;;
77111;SDS011;66064;50.226;14.344;2023-02-11T01:41:04;47.97;;;41.35;;
77111;SDS011;66064;50.226;14.344;2023-02-11T01:43:52;49.63;;;38.90;;
77111;SDS011;66064;50.226;14.344;2023-02-11T01:46:33;48.55;;;31.85;;
77111;SDS011;66064;50.226;14.344;2023-02-11T01:49:11;46.22;;;41.63;;
77111;SDS011;66064;50.226;14.344;2023-02-11T01:51:43;46.53;;;42.08;;
77111;SDS011;66064;50.226;14.344;2023-02-11T01:54:15;47.33;;;42.28;;
77111;SDS011;66064;50.226;14.344;2023-02-11T01:57:02;44.35;;;39.80;;
77111;SDS011;66064;50.226;14.344;2023-02-11T02:02:44;48.45;;;43.35;;
77111;SDS011;66064;50.226;14.344;2023-02-11T02:08:10;40.20;;;36.10;;
77111;SDS011;66064;50.226;14.344;2023-02-11T02:10:45;50.20;;;45.13;;
77111;SDS011;66064;50.226;14.344;2023-02-11T02:13:13;48.63;;;43.53;;
77111;SDS011;66064;50.226;14.344;2023-02-11T02:15:52;43.58;;;37.40;;
77111;SDS011;66064;50.226;14.344;2023-02-11T02:29:50;43.75;;;39.75;;
77111;SDS011;66064;50.226;14.344;2023-02-11T02:35:11;47.10;;;42.15;;
77111;SDS011;66064;50.226;14.344;2023-02-11T02:37:43;53.30;;;48.17;;
77111;SDS011;66064;50.226;14.344;2023-02-11T02:40:17;46.78;;;41.28;;
77111;SDS011;66064;50.226;14.344;2023-02-11T02:42:46;54.15;;;47.35;;
77111;SDS011;66064;50.226;14.344;2023-02-11T02:45:13;49.03;;;42.78;;
77111;SDS011;66064;50.226;14.344;2023-02-11T02:47:40;48.53;;;43.35;;
77111;SDS011;66064;50.226;14.344;2023-02-11T02:50:05;48.40;;;43.33;;
77111;SDS011;66064;50.226;14.344;2023-02-11T02:52:35;49.13;;;44.05;;
77111;SDS011;66064;50.226;14.344;2023-02-11T03:11:00;45.25;;;40.42;;
77111;SDS011;66064;50.226;14.344;2023-02-11T03:13:28;51.63;;;40.97;;
77111;SDS011;66064;50.226;14.344;2023-02-11T03:15:59;46.83;;;41.33;;
77111;SDS011;66064;50.226;14.344;2023-02-11T03:18:31;44.13;;;38.38;;
77111;SDS011;66064;50.226;14.344;2023-02-11T03:21:01;41.33;;;35.47;;
77111;SDS011;66064;50.226;14.344;2023-02-11T03:23:31;47.70;;;42.22;;
77111;SDS011;66064;50.226;14.344;2023-02-11T03:26:04;49.88;;;42.15;;
77111;SDS011;66064;50.226;14.344;2023-02-11T03:28:46;53.90;;;43.65;;
77111;SDS011;66064;50.226;14.344;2023-02-11T03:31:24;47.33;;;41.00;;
77111;SDS011;66064;50.226;14.344;2023-02-11T03:33:59;50.10;;;44.70;;
77111;SDS011;66064;50.226;14.344;2023-02-11T03:36:47;45.75;;;40.90;;
77111;SDS011;66064;50.226;14.344;2023-02-11T03:39:21;49.05;;;43.83;;
77111;SDS011;66064;50.226;14.344;2023-02-11T03:41:51;47.55;;;39.38;;
77111;SDS011;66064;50.226;14.344;2023-02-11T03:44:20;50.53;;;45.05;;
77111;SDS011;66064;50.226;14.344;2023-02-11T03:46:49;49.00;;;43.70;;
77111;SDS011;66064;50.226;14.344;2023-02-11T03:49:19;45.17;;;38.10;;
77111;SDS011;66064;50.226;14.344;2023-02-11T03:51:48;50.35;;;45.28;;
77111;SDS011;66064;50.226;14.344;2023-02-11T03:54:18;46.80;;;41.90;;
77111;SDS011;66064;50.226;14.344;2023-02-11T03:56:50;47.53;;;41.00;;
77111;SDS011;66064;50.226;14.344;2023-02-11T04:01:44;40.80;;;36.70;;
77111;SDS011;66064;50.226;14.344;2023-02-11T04:04:10;43.17;;;38.78;;
77111;SDS011;66064;50.226;14.344;2023-02-11T04:06:36;43.60;;;39.20;;
77111;SDS011;66064;50.226;14.344;2023-02-11T04:09:02;45.95;;;41.15;;
77111;SDS011;66064;50.226;14.344;2023-02-11T04:11:28;41.35;;;35.70;;
77111;SDS011;66064;50.226;14.344;2023-02-11T04:13:54;47.13;;;37.58;;
77111;SDS011;66064;50.226;14.344;2023-02-11T04:16:20;50.05;;;42.70;;
77111;SDS011;66064;50.226;14.344;2023-02-11T04:18:46;38.33;;;34.30;;
77111;SDS011;66064;50.226;14.344;2023-02-11T04:21:11;45.15;;;40.08;;
77111;SDS011;66064;50.226;14.344;2023-02-11T04:23:37;44.75;;;39.95;;
77111;SDS011;66064;50.226;14.344;2023-02-11T04:26:03;47.40;;;42.03;;
77111;SDS011;66064;50.226;14.344;2023-02-11T04:28:29;44.80;;;39.75;;
77111;SDS011;66064;50.226;14.344;2023-02-11T04:30:55;47.05;;;31.02;;
77111;SDS011;66064;50.226;14.344;2023-02-11T04:33:22;47.38;;;42.45;;
77111;SDS011;66064;50.226;14.344;2023-02-11T04:35:48;45.25;;;39.92;;
77111;SDS011;66064;50.226;14.344;2023-02-11T04:38:15;41.33;;;36.60;;
77111;SDS011;66064;50.226;14.344;2023-02-11T04:40:41;43.28;;;38.60;;
77111;SDS011;66064;50.226;14.344;2023-02-11T04:43:07;47.65;;;42.78;;
77111;SDS011;66064;50.226;14.344;2023-02-11T04:45:33;44.88;;;40.22;;
77111;SDS011;66064;50.226;14.344;2023-02-11T04:48:02;42.97;;;34.30;;
77111;SDS011;66064;50.226;14.344;2023-02-11T04:50:28;48.08;;;42.35;;
77111;SDS011;66064;50.226;14.344;2023-02-11T04:52:54;45.53;;;40.92;;
77111;SDS011;66064;50.226;14.344;2023-02-11T04:55:20;45.00;;;39.17;;
77111;SDS011;66064;50.226;14.344;2023-02-11T04:57:46;41.33;;;36.90;;
77111;SDS011;66064;50.226;14.344;2023-02-11T05:00:12;36.53;;;32.67;;
77111;SDS011;66064;50.226;14.344;2023-02-11T05:02:38;43.28;;;38.95;;
77111;SDS011;66064;50.226;14.344;2023-02-11T05:05:04;43.75;;;38.50;;
77111;SDS011;66064;50.226;14.344;2023-02-11T05:07:30;54.17;;;44.28;;
77111;SDS011;66064;50.226;14.344;2023-02-11T05:09:57;45.67;;;40.80;;
77111;SDS011;66064;50.226;14.344;2023-02-11T05:12:23;40.70;;;36.47;;
77111;SDS011;66064;50.226;14.344;2023-02-11T05:14:48;42.28;;;35.13;;
77111;SDS011;66064;50.226;14.344;2023-02-11T05:17:14;42.20;;;34.28;;
77111;SDS011;66064;50.226;14.344;2023-02-11T05:19:40;42.03;;;37.63;;
77111;SDS011;66064;50.226;14.344;2023-02-11T05:22:06;45.08;;;40.05;;
77111;SDS011;66064;50.226;14.344;2023-02-11T05:24:32;46.53;;;38.45;;
77111;SDS011;66064;50.226;14.344;2023-02-11T05:26:59;48.15;;;43.30;;
77111;SDS011;66064;50.226;14.344;2023-02-11T05:29:26;47.78;;;42.80;;
77111;SDS011;66064;50.226;14.344;2023-02-11T05:31:53;44.67;;;39.85;;
77111;SDS011;66064;50.226;14.344;2023-02-11T05:34:18;45.15;;;39.47;;
77111;SDS011;66064;50.226;14.344;2023-02-11T05:36:45;40.47;;;27.52;;
77111;SDS011;66064;50.226;14.344;2023-02-11T05:39:10;44.78;;;40.45;;
77111;SDS011;66064;50.226;14.344;2023-02-11T05:41:36;42.65;;;38.22;;
77111;SDS011;66064;50.226;14.344;2023-02-11T05:44:02;45.47;;;40.67;;
77111;SDS011;66064;50.226;14.344;2023-02-11T05:46:28;40.15;;;33.50;;
77111;SDS011;66064;50.226;14.344;2023-02-11T05:48:54;38.67;;;34.20;;
77111;SDS011;66064;50.226;14.344;2023-02-11T05:51:21;46.03;;;34.83;;
77111;SDS011;66064;50.226;14.344;2023-02-11T05:53:49;45.72;;;35.88;;
77111;SDS011;66064;50.226;14.344;2023-02-11T05:56:15;43.20;;;38.60;;
77111;SDS011;66064;50.226;14.344;2023-02-11T05:58:41;42.85;;;38.35;;
77111;SDS011;66064;50.226;14.344;2023-02-11T06:01:07;41.90;;;37.30;;
77111;SDS011;66064;50.226;14.344;2023-02-11T06:03:33;40.95;;;36.80;;
77111;SDS011;66064;50.226;14.344;2023-02-11T06:05:59;43.55;;;37.50;;
77111;SDS011;66064;50.226;14.344;2023-02-11T06:08:24;45.28;;;36.80;;
77111;SDS011;66064;50.226;14.344;2023-02-11T06:10:51;42.22;;;37.78;;
77111;SDS011;66064;50.226;14.344;2023-02-11T06:13:16;42.70;;;35.42;;
77111;SDS011;66064;50.226;14.344;2023-02-11T06:15:44;38.60;;;34.38;;
77111;SDS011;66064;50.226;14.344;2023-02-11T06:18:10;42.15;;;35.65;;
77111;SDS011;66064;50.226;14.344;2023-02-11T06:20:37;36.90;;;32.97;;
77111;SDS011;66064;50.226;14.344;2023-02-11T06:23:05;37.67;;;33.78;;
77111;SDS011;66064;50.226;14.344;2023-02-11T06:25:31;39.00;;;35.22;;
77111;SDS011;66064;50.226;14.344;2023-02-11T06:27:56;44.45;;;39.38;;
77111;SDS011;66064;50.226;14.344;2023-02-11T06:30:22;40.58;;;36.35;;
77111;SDS011;66064;50.226;14.344;2023-02-11T06:32:48;42.50;;;38.17;;
77111;SDS011;66064;50.226;14.344;2023-02-11T06:35:14;41.53;;;35.97;;
77111;SDS011;66064;50.226;14.344;2023-02-11T06:37:40;37.83;;;33.70;;
77111;SDS011;66064;50.226;14.344;2023-02-11T06:40:08;42.15;;;33.05;;
77111;SDS011;66064;50.226;14.344;2023-02-11T06:42:34;42.60;;;35.63;;
77111;SDS011;66064;50.226;14.344;2023-02-11T06:45:02;35.35;;;29.48;;
77111;SDS011;66064;50.226;14.344;2023-02-11T06:47:30;34.20;;;23.65;;
77111;SDS011;66064;50.226;14.344;2023-02-11T06:49:56;34.45;;;31.00;;
77111;SDS011;66064;50.226;14.344;2023-02-11T06:52:22;35.45;;;32.05;;
77111;SDS011;66064;50.226;14.344;2023-02-11T06:54:48;39.90;;;36.05;;
77111;SDS011;66064;50.226;14.344;2023-02-11T06:57:14;34.78;;;31.23;;
77111;SDS011;66064;50.226;14.344;2023-02-11T06:59:40;39.67;;;35.58;;
77111;SDS011;66064;50.226;14.344;2023-02-11T07:02:07;31.70;;;21.00;;
77111;SDS011;66064;50.226;14.344;2023-02-11T07:04:34;27.77;;;19.85;;
77111;SDS011;66064;50.226;14.344;2023-02-11T07:07:00;37.47;;;31.35;;
77111;SDS011;66064;50.226;14.344;2023-02-11T07:09:26;30.40;;;27.48;;
77111;SDS011;66064;50.226;14.344;2023-02-11T07:11:52;37.30;;;32.22;;
77111;SDS011;66064;50.226;14.344;2023-02-11T07:14:18;34.75;;;31.10;;
77111;SDS011;66064;50.226;14.344;2023-02-11T07:16:43;36.13;;;24.52;;
77111;SDS011;66064;50.226;14.344;2023-02-11T07:19:10;34.35;;;30.80;;
77111;SDS011;66064;50.226;14.344;2023-02-11T07:21:35;37.55;;;33.97;;
77111;SDS011;66064;50.226;14.344;2023-02-11T07:24:04;35.35;;;31.80;;
77111;SDS011;66064;50.226;14.344;2023-02-11T07:26:31;38.33;;;34.67;;
77111;SDS011;66064;50.226;14.344;2023-02-11T07:28:57;36.63;;;33.08;;
77111;SDS011;66064;50.226;14.344;2023-02-11T07:31:24;36.75;;;33.42;;
77111;SDS011;66064;50.226;14.344;2023-02-11T07:33:53;38.63;;;34.72;;
77111;SDS011;66064;50.226;14.344;2023-02-11T07:36:20;34.97;;;31.45;;
77111;SDS011;66064;50.226;14.344;2023-02-11T07:38:48;33.92;;;30.45;;
77111;SDS011;66064;50.226;14.344;2023-02-11T07:41:15;35.20;;;31.73;;
77111;SDS011;66064;50.226;14.344;2023-02-11T07:43:43;36.30;;;31.45;;
77111;SDS011;66064;50.226;14.344;2023-02-11T07:46:13;35.35;;;31.70;;
77111;SDS011;66064;50.226;14.344;2023-02-11T07:48:40;35.88;;;29.88;;
77111;SDS011;66064;50.226;14.344;2023-02-11T07:51:23;37.53;;;33.58;;
77111;SDS011;66064;50.226;14.344;2023-02-11T07:53:51;42.78;;;38.30;;
77111;SDS011;66064;50.226;14.344;2023-02-11T07:56:18;38.60;;;34.67;;
77111;SDS011;66064;50.226;14.344;2023-02-11T07:58:44;36.60;;;33.05;;
77111;SDS011;66064;50.226;14.344;2023-02-11T08:01:15;37.97;;;34.05;;
77111;SDS011;66064;50.226;14.344;2023-02-11T08:03:43;34.17;;;30.58;;
77111;SDS011;66064;50.226;14.344;2023-02-11T08:06:10;37.70;;;32.63;;
77111;SDS011;66064;50.226;14.344;2023-02-11T08:08:38;40.92;;;33.55;;
77111;SDS011;66064;50.226;14.344;2023-02-11T08:11:07;43.03;;;30.38;;
77111;SDS011;66064;50.226;14.344;2023-02-11T08:13:35;42.50;;;36.17;;
77111;SDS011;66064;50.226;14.344;2023-02-11T08:16:01;36.97;;;32.47;;
77111;SDS011;66064;50.226;14.344;2023-02-11T08:18:31;38.35;;;31.67;;
77111;SDS011;66064;50.226;14.344;2023-02-11T08:21:04;36.67;;;33.00;;
77111;SDS011;66064;50.226;14.344;2023-02-11T08:23:31;36.67;;;30.63;;
77111;SDS011;66064;50.226;14.344;2023-02-11T08:26:02;34.33;;;30.77;;
77111;SDS011;66064;50.226;14.344;2023-02-11T08:28:29;35.03;;;29.58;;
77111;SDS011;66064;50.226;14.344;2023-02-11T08:30:55;34.63;;;30.85;;
77111;SDS011;66064;50.226;14.344;2023-02-11T08:33:21;37.05;;;32.92;;
77111;SDS011;66064;50.226;14.344;2023-02-11T08:35:47;37.83;;;33.67;;
77111;SDS011;66064;50.226;14.344;2023-02-11T08:38:13;36.25;;;31.55;;
77111;SDS011;66064;50.226;14.344;2023-02-11T08:40:39;39.45;;;32.33;;
77111;SDS011;66064;50.226;14.344;2023-02-11T08:43:05;40.05;;;32.63;;
77111;SDS011;66064;50.226;14.344;2023-02-11T08:45:30;30.27;;;26.88;;
77111;SDS011;66064;50.226;14.344;2023-02-11T08:47:57;33.65;;;28.15;;
77111;SDS011;66064;50.226;14.344;2023-02-11T08:50:22;30.98;;;27.55;;
77111;SDS011;66064;50.226;14.344;2023-02-11T08:52:48;33.17;;;27.25;;
77111;SDS011;66064;50.226;14.344;2023-02-11T08:55:16;33.80;;;29.55;;
77111;SDS011;66064;50.226;14.344;2023-02-11T08:57:42;36.70;;;30.10;;
77111;SDS011;66064;50.226;14.344;2023-02-11T09:00:07;33.33;;;27.65;;
77111;SDS011;66064;50.226;14.344;2023-02-11T09:02:35;29.55;;;26.40;;
77111;SDS011;66064;50.226;14.344;2023-02-11T09:05:01;32.30;;;22.88;;
77111;SDS011;66064;50.226;14.344;2023-02-11T09:07:27;36.78;;;33.00;;
77111;SDS011;66064;50.226;14.344;2023-02-11T09:09:53;30.67;;;26.00;;
77111;SDS011;66064;50.226;14.344;2023-02-11T09:12:19;36.05;;;27.33;;
77111;SDS011;66064;50.226;14.344;2023-02-11T09:14:45;30.50;;;27.40;;
77111;SDS011;66064;50.226;14.344;2023-02-11T09:17:11;31.55;;;26.23;;
77111;SDS011;66064;50.226;14.344;2023-02-11T09:19:36;32.30;;;28.92;;
77111;SDS011;66064;50.226;14.344;2023-02-11T09:22:02;28.95;;;24.20;;
77111;SDS011;66064;50.226;14.344;2023-02-11T09:24:28;29.85;;;21.27;;
77111;SDS011;66064;50.226;14.344;2023-02-11T09:26:54;30.52;;;27.33;;
77111;SDS011;66064;50.226;14.344;2023-02-11T09:29:20;31.50;;;28.30;;
77111;SDS011;66064;50.226;14.344;2023-02-11T09:31:46;28.48;;;25.48;;
77111;SDS011;66064;50.226;14.344;2023-02-11T09:34:12;30.83;;;28.02;;
77111;SDS011;66064;50.226;14.344;2023-02-11T09:36:39;34.67;;;29.35;;
77111;SDS011;66064;50.226;14.344;2023-02-11T09:39:06;36.00;;;32.40;;
77111;SDS011;66064;50.226;14.344;2023-02-11T09:44:40;30.02;;;26.92;;
77111;SDS011;66064;50.226;14.344;2023-02-11T09:47:23;35.53;;;31.77;;
77111;SDS011;66064;50.226;14.344;2023-02-11T09:49:57;32.33;;;26.85;;
77111;SDS011;66064;50.226;14.344;2023-02-11T09:55:10;35.70;;;30.88;;
77111;SDS011;66064;50.226;14.344;2023-02-11T09:57:43;34.53;;;29.00;;
77111;SDS011;66064;50.226;14.344;2023-02-11T10:00:20;29.08;;;20.42;;
77111;SDS011;66064;50.226;14.344;2023-02-11T10:19:15;33.67;;;27.40;;
77111;SDS011;66064;50.226;14.344;2023-02-11T10:21:57;37.22;;;29.88;;
77111;SDS011;66064;50.226;14.344;2023-02-11T10:24:31;39.08;;;30.08;;
77111;SDS011;66064;50.226;14.344;2023-02-11T10:26:58;39.47;;;29.38;;
77111;SDS011;66064;50.226;14.344;2023-02-11T10:29:34;28.35;;;25.48;;
77111;SDS011;66064;50.226;14.344;2023-02-11T10:32:40;29.17;;;26.40;;
77111;SDS011;66064;50.226;14.344;2023-02-11T10:35:13;34.97;;;30.55;;
77111;SDS011;66064;50.226;14.344;2023-02-11T10:37:45;29.75;;;26.85;;
77111;SDS011;66064;50.226;14.344;2023-02-11T10:40:15;28.15;;;25.58;;
77111;SDS011;66064;50.226;14.344;2023-02-11T10:42:50;28.90;;;25.90;;
77111;SDS011;66064;50.226;14.344;2023-02-11T10:45:24;30.15;;;25.40;;
77111;SDS011;66064;50.226;14.344;2023-02-11T10:47:50;37.47;;;29.80;;
77111;SDS011;66064;50.226;14.344;2023-02-11T10:50:30;28.40;;;24.33;;
77111;SDS011;66064;50.226;14.344;2023-02-11T10:53:17;34.03;;;30.58;;
77111;SDS011;66064;50.226;14.344;2023-02-11T10:55:50;32.15;;;28.83;;
77111;SDS011;66064;50.226;14.344;2023-02-11T10:58:25;27.45;;;23.90;;
77111;SDS011;66064;50.226;14.344;2023-02-11T11:00:56;31.50;;;28.15;;
77111;SDS011;66064;50.226;14.344;2023-02-11T11:03:32;31.63;;;28.70;;
77111;SDS011;66064;50.226;14.344;2023-02-11T11:06:09;31.75;;;28.45;;
77111;SDS011;66064;50.226;14.344;2023-02-11T11:08:40;33.08;;;29.65;;
77111;SDS011;66064;50.226;14.344;2023-02-11T11:16:25;27.88;;;21.20;;
77111;SDS011;66064;50.226;14.344;2023-02-11T11:19:13;29.60;;;26.50;;
77111;SDS011;66064;50.226;14.344;2023-02-11T11:21:41;29.75;;;25.90;;
77111;SDS011;66064;50.226;14.344;2023-02-11T11:24:28;31.77;;;27.40;;
77111;SDS011;66064;50.226;14.344;2023-02-11T11:27:15;31.20;;;27.63;;
77111;SDS011;66064;50.226;14.344;2023-02-11T11:29:47;32.78;;;27.30;;
77111;SDS011;66064;50.226;14.344;2023-02-11T11:32:20;29.52;;;26.40;;
77111;SDS011;66064;50.226;14.344;2023-02-11T11:34:52;33.45;;;28.75;;
77111;SDS011;66064;50.226;14.344;2023-02-11T11:37:31;28.27;;;25.27;;
77111;SDS011;66064;50.226;14.344;2023-02-11T11:42:40;35.55;;;27.05;;
77111;SDS011;66064;50.226;14.344;2023-02-11T11:53:04;27.00;;;24.38;;
77111;SDS011;66064;50.226;14.344;2023-02-11T11:55:40;30.52;;;27.58;;
77111;SDS011;66064;50.226;14.344;2023-02-11T11:58:18;26.95;;;24.35;;
77111;SDS011;66064;50.226;14.344;2023-02-11T12:01:01;31.95;;;26.63;;
77111;SDS011;66064;50.226;14.344;2023-02-11T12:06:40;30.40;;;25.00;;
77111;SDS011;66064;50.226;14.344;2023-02-11T12:09:25;27.10;;;24.38;;
77111;SDS011;66064;50.226;14.344;2023-02-11T12:20:44;28.27;;;25.05;;
77111;SDS011;66064;50.226;14.344;2023-02-11T12:28:45;27.75;;;24.95;;
77111;SDS011;66064;50.226;14.344;2023-02-11T12:37:06;24.05;;;21.45;;
77111;SDS011;66064;50.226;14.344;2023-02-11T12:43:19;24.55;;;22.38;;
77111;SDS011;66064;50.226;14.344;2023-02-11T12:57:25;24.98;;;22.73;;
77111;SDS011;66064;50.226;14.344;2023-02-11T13:05:43;25.50;;;22.90;;
77111;SDS011;66064;50.226;14.344;2023-02-11T13:08:18;22.40;;;20.02;;
77111;SDS011;66064;50.226;14.344;2023-02-11T13:11:06;21.27;;;19.33;;
77111;SDS011;66064;50.226;14.344;2023-02-11T13:13:53;26.88;;;22.55;;
77111;SDS011;66064;50.226;14.344;2023-02-11T13:16:35;24.25;;;19.67;;
77111;SDS011;66064;50.226;14.344;2023-02-11T13:19:07;24.92;;;21.90;;
77111;SDS011;66064;50.226;14.344;2023-02-11T13:36:11;24.98;;;22.30;;
77111;SDS011;66064;50.226;14.344;2023-02-11T13:38:23;25.30;;;22.67;;
77111;SDS011;66064;50.226;14.344;2023-02-11T13:43:25;24.23;;;21.85;;
77111;SDS011;66064;50.226;14.344;2023-02-11T13:46:03;26.90;;;24.17;;
77111;SDS011;66064;50.226;14.344;2023-02-11T13:48:32;26.80;;;22.95;;
77111;SDS011;66064;50.226;14.344;2023-02-11T13:51:02;28.83;;;25.73;;
77111;SDS011;66064;50.226;14.344;2023-02-11T13:53:44;25.65;;;22.83;;
77111;SDS011;66064;50.226;14.344;2023-02-11T13:58:52;21.92;;;19.88;;
77111;SDS011;66064;50.226;14.344;2023-02-11T14:01:40;24.77;;;21.40;;
77111;SDS011;66064;50.226;14.344;2023-02-11T14:04:33;24.88;;;22.38;;
77111;SDS011;66064;50.226;14.344;2023-02-11T14:16:05;25.85;;;21.08;;
77111;SDS011;66064;50.226;14.344;2023-02-11T14:18:35;22.73;;;20.60;;
77111;SDS011;66064;50.226;14.344;2023-02-11T14:21:08;28.13;;;23.67;;
77111;SDS011;66064;50.226;14.344;2023-02-11T14:26:33;26.38;;;21.35;;
77111;SDS011;66064;50.226;14.344;2023-02-11T14:43:02;28.45;;;22.42;;
77111;SDS011;66064;50.226;14.344;2023-02-11T14:45:36;25.92;;;23.13;;
77111;SDS011;66064;50.226;14.344;2023-02-11T14:48:16;29.88;;;26.67;;
77111;SDS011;66064;50.226;14.344;2023-02-11T14:51:02;25.83;;;23.10;;
77111;SDS011;66064;50.226;14.344;2023-02-11T14:53:35;31.33;;;25.77;;
77111;SDS011;66064;50.226;14.344;2023-02-11T14:56:14;26.15;;;23.45;;
77111;SDS011;66064;50.226;14.344;2023-02-11T14:58:44;25.80;;;22.75;;
77111;SDS011;66064;50.226;14.344;2023-02-11T15:01:32;25.92;;;19.25;;
77111;SDS011;66064;50.226;14.344;2023-02-11T15:04:13;25.90;;;23.63;;
77111;SDS011;66064;50.226;14.344;2023-02-11T15:06:53;33.40;;;27.83;;
77111;SDS011;66064;50.226;14.344;2023-02-11T15:09:22;24.85;;;22.67;;
77111;SDS011;66064;50.226;14.344;2023-02-11T15:11:56;27.60;;;24.90;;
77111;SDS011;66064;50.226;14.344;2023-02-11T15:14:24;24.67;;;19.58;;
77111;SDS011;66064;50.226;14.344;2023-02-11T15:16:59;28.42;;;25.60;;
77111;SDS011;66064;50.226;14.344;2023-02-11T15:19:35;28.98;;;25.60;;
77111;SDS011;66064;50.226;14.344;2023-02-11T15:22:15;37.28;;;27.38;;
77111;SDS011;66064;50.226;14.344;2023-02-11T15:24:44;26.75;;;24.17;;
77111;SDS011;66064;50.226;14.344;2023-02-11T15:27:21;27.02;;;24.38;;
77111;SDS011;66064;50.226;14.344;2023-02-11T15:29:50;30.75;;;24.83;;
77111;SDS011;66064;50.226;14.344;2023-02-11T15:32:17;28.42;;;25.67;;
77111;SDS011;66064;50.226;14.344;2023-02-11T15:34:49;28.92;;;25.85;;
77111;SDS011;66064;50.226;14.344;2023-02-11T15:37:27;24.27;;;21.17;;
77111;SDS011;66064;50.226;14.344;2023-02-11T15:39:54;28.00;;;21.95;;
77111;SDS011;66064;50.226;14.344;2023-02-11T15:42:34;39.95;;;29.25;;
77111;SDS011;66064;50.226;14.344;2023-02-11T15:45:07;41.55;;;30.05;;
77111;SDS011;66064;50.226;14.344;2023-02-11T15:47:51;38.88;;;27.67;;
77111;SDS011;66064;50.226;14.344;2023-02-11T15:50:19;35.92;;;28.30;;
77111;SDS011;66064;50.226;14.344;2023-02-11T15:52:46;43.25;;;29.63;;
77111;SDS011;66064;50.226;14.344;2023-02-11T15:55:13;33.10;;;29.50;;
77111;SDS011;66064;50.226;14.344;2023-02-11T15:57:42;31.45;;;26.38;;
77111;SDS011;66064;50.226;14.344;2023-02-11T16:00:15;27.58;;;24.63;;
77111;SDS011;66064;50.226;14.344;2023-02-11T16:02:44;28.50;;;19.48;;
77111;SDS011;66064;50.226;14.344;2023-02-11T16:05:24;30.80;;;27.58;;
77111;SDS011;66064;50.226;14.344;2023-02-11T16:07:50;34.13;;;30.58;;
77111;SDS011;66064;50.226;14.344;2023-02-11T16:12:49;28.85;;;25.90;;
77111;SDS011;66064;50.226;14.344;2023-02-11T16:15:26;29.98;;;26.83;;
77111;SDS011;66064;50.226;14.344;2023-02-11T16:18:01;30.20;;;27.05;;
77111;SDS011;66064;50.226;14.344;2023-02-11T16:20:37;29.90;;;26.63;;
77111;SDS011;66064;50.226;14.344;2023-02-11T16:23:03;28.45;;;24.48;;
77111;SDS011;66064;50.226;14.344;2023-02-11T16:25:30;29.23;;;26.10;;
77111;SDS011;66064;50.226;14.344;2023-02-11T16:27:59;26.23;;;23.58;;
77111;SDS011;66064;50.226;14.344;2023-02-11T16:33:04;25.48;;;22.10;;
77111;SDS011;66064;50.226;14.344;2023-02-11T16:35:31;30.23;;;27.15;;
77111;SDS011;66064;50.226;14.344;2023-02-11T16:37:56;27.38;;;24.67;;
77111;SDS011;66064;50.226;14.344;2023-02-11T16:40:22;24.08;;;18.58;;
77111;SDS011;66064;50.226;14.344;2023-02-11T16:42:48;26.02;;;23.58;;
77111;SDS011;66064;50.226;14.344;2023-02-11T16:45:16;29.13;;;24.23;;
77111;SDS011;66064;50.226;14.344;2023-02-11T16:47:42;28.92;;;25.98;;
77111;SDS011;66064;50.226;14.344;2023-02-11T16:50:10;25.70;;;23.00;;
77111;SDS011;66064;50.226;14.344;2023-02-11T16:52:43;27.33;;;24.65;;
77111;SDS011;66064;50.226;14.344;2023-02-11T16:55:11;26.15;;;23.55;;
77111;SDS011;66064;50.226;14.344;2023-02-11T16:57:36;28.50;;;25.98;;
77111;SDS011;66064;50.226;14.344;2023-02-11T17:00:03;24.63;;;22.05;;
77111;SDS011;66064;50.226;14.344;2023-02-11T17:02:32;29.30;;;23.92;;
77111;SDS011;66064;50.226;14.344;2023-02-11T17:05:02;24.25;;;21.75;;
77111;SDS011;66064;50.226;14.344;2023-02-11T17:07:29;29.63;;;26.15;;
77111;SDS011;66064;50.226;14.344;2023-02-11T17:09:56;26.73;;;23.98;;
77111;SDS011;66064;50.226;14.344;2023-02-11T17:12:21;18.30;;;14.68;;
77111;SDS011;66064;50.226;14.344;2023-02-11T17:14:51;22.50;;;20.33;;